sensor_id;sensor_type;location;lat;lon;timestamp;temperature;humidity
71084;DHT22;58741;52.672;13.548;2024-03-08T00:00:34;0.00;99.90
71084;DHT22;58741;52.672;13.548;2024-03-08T00:03:01;0.00;99.90
71084;DHT22;58741;52.672;13.548;2024-03-08T00:05:29;-0.10;99.90
71084;DHT22;58741;52.672;13.548;2024-03-08T00:07:56;-0.10;99.90
71084;DHT22;58741;52.672;13.548;2024-03-08T00:10:23;-0.10;99.90
71084;DHT22;58741;52.672;13.548;2024-03-08T00:12:54;-0.10;99.90
71084;DHT22;58741;52.672;13.548;2024-03-08T00:15:21;-0.20;99.90
71084;DHT22;58741;52.672;13.548;2024-03-08T00:17:49;-0.20;99.90
71084;DHT22;58741;52.672;13.548;2024-03-08T00:20:16;-0.30;99.90
71084;DHT22;58741;52.672;13.548;2024-03-08T00:22:46;-0.30;99.90
71084;DHT22;58741;52.672;13.548;2024-03-08T00:25:13;-0.30;99.90
71084;DHT22;58741;52.672;13.548;2024-03-08T00:27:40;-0.30;99.90
71084;DHT22;58741;52.672;13.548;2024-03-08T00:30:07;-0.30;99.90
71084;DHT22;58741;52.672;13.548;2024-03-08T00:32:35;-0.40;99.90
71084;DHT22;58741;52.672;13.548;2024-03-08T00:35:03;-0.40;99.90
71084;DHT22;58741;52.672;13.548;2024-03-08T00:37:29;-0.40;99.90
71084;DHT22;58741;52.672;13.548;2024-03-08T00:39:56;-0.50;99.90
71084;DHT22;58741;52.672;13.548;2024-03-08T00:42:23;-0.50;99.90
71084;DHT22;58741;52.672;13.548;2024-03-08T00:44:50;-0.50;99.90
71084;DHT22;58741;52.672;13.548;2024-03-08T00:47:18;-0.50;99.90
71084;DHT22;58741;52.672;13.548;2024-03-08T00:49:45;-0.60;99.90
71084;DHT22;58741;52.672;13.548;2024-03-08T00:52:12;-0.60;99.90
71084;DHT22;58741;52.672;13.548;2024-03-08T00:54:39;-0.60;99.90
71084;DHT22;58741;52.672;13.548;2024-03-08T00:57:06;-0.60;99.90
71084;DHT22;58741;52.672;13.548;2024-03-08T00:59:33;-0.60;99.90
71084;DHT22;58741;52.672;13.548;2024-03-08T01:02:01;-0.60;99.90
71084;DHT22;58741;52.672;13.548;2024-03-08T01:04:28;-0.70;99.90
71084;DHT22;58741;52.672;13.548;2024-03-08T01:06:57;-0.70;99.90
71084;DHT22;58741;52.672;13.548;2024-03-08T01:09:24;-0.70;99.90
71084;DHT22;58741;52.672;13.548;2024-03-08T01:11:51;-0.80;99.90
71084;DHT22;58741;52.672;13.548;2024-03-08T01:14:19;-0.80;99.90
71084;DHT22;58741;52.672;13.548;2024-03-08T01:16:49;-0.80;99.90
71084;DHT22;58741;52.672;13.548;2024-03-08T01:19:16;-0.80;99.90
71084;DHT22;58741;52.672;13.548;2024-03-08T01:21:42;-0.90;99.90
71084;DHT22;58741;52.672;13.548;2024-03-08T01:24:09;-0.90;99.90
71084;DHT22;58741;52.672;13.548;2024-03-08T01:26:36;-0.90;99.90
71084;DHT22;58741;52.672;13.548;2024-03-08T01:29:03;-0.90;99.90
71084;DHT22;58741;52.672;13.548;2024-03-08T01:31:30;-0.90;99.90
71084;DHT22;58741;52.672;13.548;2024-03-08T01:34:00;-1.00;99.90
71084;DHT22;58741;52.672;13.548;2024-03-08T01:36:27;-1.00;99.90
71084;DHT22;58741;52.672;13.548;2024-03-08T01:38:54;-1.00;99.90
71084;DHT22;58741;52.672;13.548;2024-03-08T01:41:21;-1.00;99.90
71084;DHT22;58741;52.672;13.548;2024-03-08T01:43:47;-1.00;99.90
71084;DHT22;58741;52.672;13.548;2024-03-08T01:46:17;-1.10;99.90
71084;DHT22;58741;52.672;13.548;2024-03-08T01:48:45;-1.10;99.90
71084;DHT22;58741;52.672;13.548;2024-03-08T01:51:13;-1.10;99.90
71084;DHT22;58741;52.672;13.548;2024-03-08T01:53:43;-1.10;99.90
71084;DHT22;58741;52.672;13.548;2024-03-08T01:56:12;-1.10;99.90
71084;DHT22;58741;52.672;13.548;2024-03-08T01:58:43;-1.10;99.90
71084;DHT22;58741;52.672;13.548;2024-03-08T02:01:12;-1.10;99.90
71084;DHT22;58741;52.672;13.548;2024-03-08T02:03:40;-1.00;99.90
71084;DHT22;58741;52.672;13.548;2024-03-08T02:06:06;-1.00;99.90
71084;DHT22;58741;52.672;13.548;2024-03-08T02:08:37;-1.10;99.90
71084;DHT22;58741;52.672;13.548;2024-03-08T02:11:05;-1.00;99.90
71084;DHT22;58741;52.672;13.548;2024-03-08T02:13:31;-1.00;99.90
71084;DHT22;58741;52.672;13.548;2024-03-08T02:15:59;-1.10;99.90
71084;DHT22;58741;52.672;13.548;2024-03-08T02:18:28;-1.10;99.90
71084;DHT22;58741;52.672;13.548;2024-03-08T02:20:56;-1.10;99.90
71084;DHT22;58741;52.672;13.548;2024-03-08T02:23:24;-1.10;99.90
71084;DHT22;58741;52.672;13.548;2024-03-08T02:25:55;-1.10;99.90
71084;DHT22;58741;52.672;13.548;2024-03-08T02:28:23;-1.20;99.90
71084;DHT22;58741;52.672;13.548;2024-03-08T02:30:52;-1.10;99.90
71084;DHT22;58741;52.672;13.548;2024-03-08T02:33:23;-1.20;99.90
71084;DHT22;58741;52.672;13.548;2024-03-08T02:35:50;-1.20;99.90
71084;DHT22;58741;52.672;13.548;2024-03-08T02:38:21;-1.20;99.90
71084;DHT22;58741;52.672;13.548;2024-03-08T02:40:50;-1.20;99.90
71084;DHT22;58741;52.672;13.548;2024-03-08T02:43:19;-1.20;99.90
71084;DHT22;58741;52.672;13.548;2024-03-08T02:45:46;-1.20;99.90
71084;DHT22;58741;52.672;13.548;2024-03-08T02:48:14;-1.20;99.90
71084;DHT22;58741;52.672;13.548;2024-03-08T02:50:41;-1.20;99.90
71084;DHT22;58741;52.672;13.548;2024-03-08T02:53:09;-1.20;99.90
71084;DHT22;58741;52.672;13.548;2024-03-08T02:55:37;-1.20;99.90
71084;DHT22;58741;52.672;13.548;2024-03-08T02:58:04;-1.20;99.90
71084;DHT22;58741;52.672;13.548;2024-03-08T03:00:31;-1.20;99.90
71084;DHT22;58741;52.672;13.548;2024-03-08T03:02:59;-1.20;99.90
71084;DHT22;58741;52.672;13.548;2024-03-08T03:05:25;-1.20;99.90
71084;DHT22;58741;52.672;13.548;2024-03-08T03:07:52;-1.30;99.90
71084;DHT22;58741;52.672;13.548;2024-03-08T03:10:19;-1.30;99.90
71084;DHT22;58741;52.672;13.548;2024-03-08T03:12:48;-1.30;99.90
71084;DHT22;58741;52.672;13.548;2024-03-08T03:15:15;-1.30;99.90
71084;DHT22;58741;52.672;13.548;2024-03-08T03:17:51;-1.30;99.90
71084;DHT22;58741;52.672;13.548;2024-03-08T03:20:18;-1.30;99.90
71084;DHT22;58741;52.672;13.548;2024-03-08T03:22:59;-1.30;99.90
71084;DHT22;58741;52.672;13.548;2024-03-08T03:25:28;-1.30;99.90
71084;DHT22;58741;52.672;13.548;2024-03-08T03:28:03;-1.30;99.90
71084;DHT22;58741;52.672;13.548;2024-03-08T03:30:31;-1.40;99.90
71084;DHT22;58741;52.672;13.548;2024-03-08T03:33:00;-1.30;99.90
71084;DHT22;58741;52.672;13.548;2024-03-08T03:35:30;-1.40;99.90
71084;DHT22;58741;52.672;13.548;2024-03-08T03:37:57;-1.30;99.90
71084;DHT22;58741;52.672;13.548;2024-03-08T03:40:37;-1.40;99.90
71084;DHT22;58741;52.672;13.548;2024-03-08T03:43:04;-1.40;99.90
71084;DHT22;58741;52.672;13.548;2024-03-08T03:45:31;-1.40;99.90
71084;DHT22;58741;52.672;13.548;2024-03-08T03:48:03;-1.40;99.90
71084;DHT22;58741;52.672;13.548;2024-03-08T03:50:30;-1.40;99.90
71084;DHT22;58741;52.672;13.548;2024-03-08T03:52:56;-1.40;99.90
71084;DHT22;58741;52.672;13.548;2024-03-08T03:55:23;-1.40;99.90
71084;DHT22;58741;52.672;13.548;2024-03-08T03:57:50;-1.30;99.90
71084;DHT22;58741;52.672;13.548;2024-03-08T04:00:17;-1.30;99.90
71084;DHT22;58741;52.672;13.548;2024-03-08T04:02:45;-1.40;99.90
71084;DHT22;58741;52.672;13.548;2024-03-08T04:05:13;-1.40;99.90
71084;DHT22;58741;52.672;13.548;2024-03-08T04:07:40;-1.40;99.90
71084;DHT22;58741;52.672;13.548;2024-03-08T04:10:08;-1.40;99.90
71084;DHT22;58741;52.672;13.548;2024-03-08T04:12:35;-1.40;99.90
71084;DHT22;58741;52.672;13.548;2024-03-08T04:15:03;-1.40;99.90
71084;DHT22;58741;52.672;13.548;2024-03-08T04:17:29;-1.40;99.90
71084;DHT22;58741;52.672;13.548;2024-03-08T04:19:56;-1.40;99.90
71084;DHT22;58741;52.672;13.548;2024-03-08T04:22:23;-1.50;99.90
71084;DHT22;58741;52.672;13.548;2024-03-08T04:24:50;-1.50;99.90
71084;DHT22;58741;52.672;13.548;2024-03-08T04:27:17;-1.50;99.90
71084;DHT22;58741;52.672;13.548;2024-03-08T04:29:44;-1.50;99.90
71084;DHT22;58741;52.672;13.548;2024-03-08T04:32:10;-1.50;99.90
71084;DHT22;58741;52.672;13.548;2024-03-08T04:34:39;-1.50;99.90
71084;DHT22;58741;52.672;13.548;2024-03-08T04:37:11;-1.60;99.90
71084;DHT22;58741;52.672;13.548;2024-03-08T04:39:40;-1.60;99.90
71084;DHT22;58741;52.672;13.548;2024-03-08T04:42:07;-1.60;99.90
71084;DHT22;58741;52.672;13.548;2024-03-08T04:44:37;-1.60;99.90
71084;DHT22;58741;52.672;13.548;2024-03-08T04:47:06;-1.60;99.90
71084;DHT22;58741;52.672;13.548;2024-03-08T04:49:33;-1.60;99.90
71084;DHT22;58741;52.672;13.548;2024-03-08T04:52:03;-1.60;99.90
71084;DHT22;58741;52.672;13.548;2024-03-08T04:54:30;-1.60;99.90
71084;DHT22;58741;52.672;13.548;2024-03-08T04:56:57;-1.60;99.90
71084;DHT22;58741;52.672;13.548;2024-03-08T04:59:24;-1.60;99.90
71084;DHT22;58741;52.672;13.548;2024-03-08T05:01:51;-1.60;99.90
71084;DHT22;58741;52.672;13.548;2024-03-08T05:04:18;-1.60;99.90
71084;DHT22;58741;52.672;13.548;2024-03-08T05:06:44;-1.70;99.90
71084;DHT22;58741;52.672;13.548;2024-03-08T05:09:11;-1.70;99.90
71084;DHT22;58741;52.672;13.548;2024-03-08T05:11:43;-1.70;99.90
71084;DHT22;58741;52.672;13.548;2024-03-08T05:14:11;-1.70;99.90
71084;DHT22;58741;52.672;13.548;2024-03-08T05:16:39;-1.70;99.90
71084;DHT22;58741;52.672;13.548;2024-03-08T05:19:06;-1.70;99.90
71084;DHT22;58741;52.672;13.548;2024-03-08T05:21:33;-1.80;99.90
71084;DHT22;58741;52.672;13.548;2024-03-08T05:24:00;-1.80;99.90
71084;DHT22;58741;52.672;13.548;2024-03-08T05:26:27;-1.80;99.90
71084;DHT22;58741;52.672;13.548;2024-03-08T05:28:53;-1.80;99.90
71084;DHT22;58741;52.672;13.548;2024-03-08T05:31:20;-1.90;99.90
71084;DHT22;58741;52.672;13.548;2024-03-08T05:33:50;-1.90;99.90
71084;DHT22;58741;52.672;13.548;2024-03-08T05:36:17;-1.90;99.90
71084;DHT22;58741;52.672;13.548;2024-03-08T05:38:44;-1.90;99.90
71084;DHT22;58741;52.672;13.548;2024-03-08T05:41:11;-1.90;99.90
71084;DHT22;58741;52.672;13.548;2024-03-08T05:43:41;-1.90;99.90
71084;DHT22;58741;52.672;13.548;2024-03-08T05:46:08;-1.90;99.90
71084;DHT22;58741;52.672;13.548;2024-03-08T05:48:35;-1.90;99.90
71084;DHT22;58741;52.672;13.548;2024-03-08T05:51:02;-2.00;99.90
71084;DHT22;58741;52.672;13.548;2024-03-08T05:53:29;-2.00;99.90
71084;DHT22;58741;52.672;13.548;2024-03-08T05:55:59;-2.00;99.90
71084;DHT22;58741;52.672;13.548;2024-03-08T05:58:26;-2.00;99.90
71084;DHT22;58741;52.672;13.548;2024-03-08T06:00:52;-2.00;99.90
71084;DHT22;58741;52.672;13.548;2024-03-08T06:03:20;-1.90;99.90
71084;DHT22;58741;52.672;13.548;2024-03-08T06:05:48;-2.00;99.90
71084;DHT22;58741;52.672;13.548;2024-03-08T06:08:16;-1.90;99.90
71084;DHT22;58741;52.672;13.548;2024-03-08T06:10:43;-1.90;99.90
71084;DHT22;58741;52.672;13.548;2024-03-08T06:13:10;-1.90;99.90
71084;DHT22;58741;52.672;13.548;2024-03-08T06:15:39;-1.90;99.90
71084;DHT22;58741;52.672;13.548;2024-03-08T06:18:06;-1.90;99.90
71084;DHT22;58741;52.672;13.548;2024-03-08T06:20:33;-1.90;99.90
71084;DHT22;58741;52.672;13.548;2024-03-08T06:23:00;-1.80;99.90
71084;DHT22;58741;52.672;13.548;2024-03-08T06:25:28;-1.80;99.90
71084;DHT22;58741;52.672;13.548;2024-03-08T06:27:54;-1.80;99.90
71084;DHT22;58741;52.672;13.548;2024-03-08T06:30:21;-1.80;99.90
71084;DHT22;58741;52.672;13.548;2024-03-08T06:32:49;-1.70;99.90
71084;DHT22;58741;52.672;13.548;2024-03-08T06:35:16;-1.70;99.90
71084;DHT22;58741;52.672;13.548;2024-03-08T06:37:43;-1.70;99.90
71084;DHT22;58741;52.672;13.548;2024-03-08T06:40:11;-1.60;99.90
71084;DHT22;58741;52.672;13.548;2024-03-08T06:42:41;-1.60;99.90
71084;DHT22;58741;52.672;13.548;2024-03-08T06:45:08;-1.50;99.90
71084;DHT22;58741;52.672;13.548;2024-03-08T06:47:36;-1.50;99.90
71084;DHT22;58741;52.672;13.548;2024-03-08T06:50:04;-1.40;99.90
71084;DHT22;58741;52.672;13.548;2024-03-08T06:52:31;-1.40;99.90
71084;DHT22;58741;52.672;13.548;2024-03-08T06:54:57;-1.30;99.90
71084;DHT22;58741;52.672;13.548;2024-03-08T06:57:24;-1.20;99.90
71084;DHT22;58741;52.672;13.548;2024-03-08T06:59:51;-1.10;99.90
71084;DHT22;58741;52.672;13.548;2024-03-08T07:02:19;-1.00;99.90
71084;DHT22;58741;52.672;13.548;2024-03-08T07:04:45;-0.90;99.90
71084;DHT22;58741;52.672;13.548;2024-03-08T07:07:12;-0.80;99.90
71084;DHT22;58741;52.672;13.548;2024-03-08T07:09:39;-0.70;99.90
71084;DHT22;58741;52.672;13.548;2024-03-08T07:12:06;-0.50;99.90
71084;DHT22;58741;52.672;13.548;2024-03-08T07:14:33;-0.30;99.90
71084;DHT22;58741;52.672;13.548;2024-03-08T07:17:00;-0.20;99.90
71084;DHT22;58741;52.672;13.548;2024-03-08T07:19:31;0.00;99.90
71084;DHT22;58741;52.672;13.548;2024-03-08T07:21:57;0.20;99.90
71084;DHT22;58741;52.672;13.548;2024-03-08T07:24:24;0.40;99.90
71084;DHT22;58741;52.672;13.548;2024-03-08T07:27:04;0.60;99.90
71084;DHT22;58741;52.672;13.548;2024-03-08T07:29:34;0.80;99.90
71084;DHT22;58741;52.672;13.548;2024-03-08T07:32:01;1.00;99.90
71084;DHT22;58741;52.672;13.548;2024-03-08T07:34:48;1.20;99.90
71084;DHT22;58741;52.672;13.548;2024-03-08T07:37:15;1.40;99.90
71084;DHT22;58741;52.672;13.548;2024-03-08T07:39:42;1.60;99.90
71084;DHT22;58741;52.672;13.548;2024-03-08T07:42:10;1.80;99.90
71084;DHT22;58741;52.672;13.548;2024-03-08T07:44:38;2.00;99.90
71084;DHT22;58741;52.672;13.548;2024-03-08T07:47:05;2.30;99.90
71084;DHT22;58741;52.672;13.548;2024-03-08T07:49:36;2.40;99.90
71084;DHT22;58741;52.672;13.548;2024-03-08T07:52:04;2.60;99.90
71084;DHT22;58741;52.672;13.548;2024-03-08T07:54:31;2.80;99.90
71084;DHT22;58741;52.672;13.548;2024-03-08T07:56:58;3.00;99.90
71084;DHT22;58741;52.672;13.548;2024-03-08T07:59:25;3.10;99.90
71084;DHT22;58741;52.672;13.548;2024-03-08T08:01:51;3.30;99.90
71084;DHT22;58741;52.672;13.548;2024-03-08T08:04:18;3.50;99.90
71084;DHT22;58741;52.672;13.548;2024-03-08T08:06:45;3.70;99.90
71084;DHT22;58741;52.672;13.548;2024-03-08T08:09:12;3.90;99.90
71084;DHT22;58741;52.672;13.548;2024-03-08T08:11:41;4.10;99.90
71084;DHT22;58741;52.672;13.548;2024-03-08T08:14:11;4.30;99.90
71084;DHT22;58741;52.672;13.548;2024-03-08T08:16:38;4.50;99.90
71084;DHT22;58741;52.672;13.548;2024-03-08T08:19:07;4.70;99.90
71084;DHT22;58741;52.672;13.548;2024-03-08T08:21:35;4.90;99.90
71084;DHT22;58741;52.672;13.548;2024-03-08T08:24:03;5.10;99.90
71084;DHT22;58741;52.672;13.548;2024-03-08T08:26:30;5.20;99.90
71084;DHT22;58741;52.672;13.548;2024-03-08T08:29:02;5.40;99.90
71084;DHT22;58741;52.672;13.548;2024-03-08T08:31:29;5.60;99.90
71084;DHT22;58741;52.672;13.548;2024-03-08T08:33:55;5.80;99.90
71084;DHT22;58741;52.672;13.548;2024-03-08T08:36:26;5.90;99.90
71084;DHT22;58741;52.672;13.548;2024-03-08T08:38:53;6.10;99.90
71084;DHT22;58741;52.672;13.548;2024-03-08T08:41:20;6.30;99.90
71084;DHT22;58741;52.672;13.548;2024-03-08T08:43:48;6.40;99.90
71084;DHT22;58741;52.672;13.548;2024-03-08T08:46:29;6.50;99.90
71084;DHT22;58741;52.672;13.548;2024-03-08T08:48:56;6.60;99.90
71084;DHT22;58741;52.672;13.548;2024-03-08T08:51:22;6.70;99.90
71084;DHT22;58741;52.672;13.548;2024-03-08T08:53:50;6.90;99.90
71084;DHT22;58741;52.672;13.548;2024-03-08T08:56:16;6.90;99.90
71084;DHT22;58741;52.672;13.548;2024-03-08T08:58:45;7.00;99.40
71084;DHT22;58741;52.672;13.548;2024-03-08T09:01:12;7.20;99.90
71084;DHT22;58741;52.672;13.548;2024-03-08T09:03:39;7.40;98.60
71084;DHT22;58741;52.672;13.548;2024-03-08T09:06:08;7.50;98.60
71084;DHT22;58741;52.672;13.548;2024-03-08T09:08:41;7.60;99.40
71084;DHT22;58741;52.672;13.548;2024-03-08T09:11:07;7.80;98.20
71084;DHT22;58741;52.672;13.548;2024-03-08T09:13:34;7.90;97.40
71084;DHT22;58741;52.672;13.548;2024-03-08T09:16:02;8.10;95.90
71084;DHT22;58741;52.672;13.548;2024-03-08T09:18:29;8.30;95.50
71084;DHT22;58741;52.672;13.548;2024-03-08T09:20:56;8.40;93.70
71084;DHT22;58741;52.672;13.548;2024-03-08T09:23:23;8.50;94.40
71084;DHT22;58741;52.672;13.548;2024-03-08T09:25:50;8.70;92.60
71084;DHT22;58741;52.672;13.548;2024-03-08T09:28:18;8.80;91.20
71084;DHT22;58741;52.672;13.548;2024-03-08T09:30:45;8.90;91.30
71084;DHT22;58741;52.672;13.548;2024-03-08T09:33:25;9.00;91.20
71084;DHT22;58741;52.672;13.548;2024-03-08T09:35:51;9.10;90.60
71084;DHT22;58741;52.672;13.548;2024-03-08T09:38:19;9.20;90.30
71084;DHT22;58741;52.672;13.548;2024-03-08T09:40:47;9.30;90.20
71084;DHT22;58741;52.672;13.548;2024-03-08T09:43:14;9.40;90.00
71084;DHT22;58741;52.672;13.548;2024-03-08T09:45:42;9.50;90.20
71084;DHT22;58741;52.672;13.548;2024-03-08T09:48:12;9.60;89.40
71084;DHT22;58741;52.672;13.548;2024-03-08T09:50:40;9.70;86.00
71084;DHT22;58741;52.672;13.548;2024-03-08T09:53:11;9.80;83.30
71084;DHT22;58741;52.672;13.548;2024-03-08T09:55:39;9.80;84.30
71084;DHT22;58741;52.672;13.548;2024-03-08T09:58:12;9.80;83.90
71084;DHT22;58741;52.672;13.548;2024-03-08T10:00:58;9.90;84.50
71084;DHT22;58741;52.672;13.548;2024-03-08T10:03:28;10.00;82.10
71084;DHT22;58741;52.672;13.548;2024-03-08T10:05:56;10.00;82.50
71084;DHT22;58741;52.672;13.548;2024-03-08T10:08:30;10.10;81.30
71084;DHT22;58741;52.672;13.548;2024-03-08T10:10:57;10.20;81.20
71084;DHT22;58741;52.672;13.548;2024-03-08T10:13:26;10.20;79.40
71084;DHT22;58741;52.672;13.548;2024-03-08T10:15:55;10.20;79.20
71084;DHT22;58741;52.672;13.548;2024-03-08T10:18:22;10.30;79.40
71084;DHT22;58741;52.672;13.548;2024-03-08T10:21:06;10.40;79.30
71084;DHT22;58741;52.672;13.548;2024-03-08T10:23:34;10.50;77.60
71084;DHT22;58741;52.672;13.548;2024-03-08T10:26:13;10.50;78.50
71084;DHT22;58741;52.672;13.548;2024-03-08T10:28:45;10.60;79.80
71084;DHT22;58741;52.672;13.548;2024-03-08T10:31:18;10.70;79.20
71084;DHT22;58741;52.672;13.548;2024-03-08T10:33:46;10.80;78.80
71084;DHT22;58741;52.672;13.548;2024-03-08T10:36:14;10.90;74.50
71084;DHT22;58741;52.672;13.548;2024-03-08T10:38:43;10.90;73.40
71084;DHT22;58741;52.672;13.548;2024-03-08T10:41:13;10.80;73.50
71084;DHT22;58741;52.672;13.548;2024-03-08T10:44:21;10.90;75.20
71084;DHT22;58741;52.672;13.548;2024-03-08T10:47:04;10.90;73.20
71084;DHT22;58741;52.672;13.548;2024-03-08T10:50:07;10.90;69.00
71084;DHT22;58741;52.672;13.548;2024-03-08T10:52:31;10.90;70.80
71084;DHT22;58741;52.672;13.548;2024-03-08T10:54:59;11.00;72.50
71084;DHT22;58741;52.672;13.548;2024-03-08T10:57:27;11.10;71.50
71084;DHT22;58741;52.672;13.548;2024-03-08T10:59:55;11.20;72.70
71084;DHT22;58741;52.672;13.548;2024-03-08T11:02:25;11.20;72.00
71084;DHT22;58741;52.672;13.548;2024-03-08T11:04:54;11.30;69.60
71084;DHT22;58741;52.672;13.548;2024-03-08T11:07:24;11.40;73.00
71084;DHT22;58741;52.672;13.548;2024-03-08T11:09:54;11.50;73.00
71084;DHT22;58741;52.672;13.548;2024-03-08T11:14:53;11.70;70.90
71084;DHT22;58741;52.672;13.548;2024-03-08T11:17:22;11.70;67.20
71084;DHT22;58741;52.672;13.548;2024-03-08T11:19:55;11.80;69.80
71084;DHT22;58741;52.672;13.548;2024-03-08T11:22:27;11.80;69.40
71084;DHT22;58741;52.672;13.548;2024-03-08T11:24:58;12.00;70.30
71084;DHT22;58741;52.672;13.548;2024-03-08T11:27:30;12.10;68.80
71084;DHT22;58741;52.672;13.548;2024-03-08T11:30:03;12.20;69.70
71084;DHT22;58741;52.672;13.548;2024-03-08T11:32:45;12.30;68.30
71084;DHT22;58741;52.672;13.548;2024-03-08T11:35:20;12.30;66.10
71084;DHT22;58741;52.672;13.548;2024-03-08T11:37:47;12.30;68.70
71084;DHT22;58741;52.672;13.548;2024-03-08T11:40:15;12.40;68.00
71084;DHT22;58741;52.672;13.548;2024-03-08T11:42:46;12.40;65.50
71084;DHT22;58741;52.672;13.548;2024-03-08T11:45:19;12.50;65.50
71084;DHT22;58741;52.672;13.548;2024-03-08T11:47:48;12.40;65.90
71084;DHT22;58741;52.672;13.548;2024-03-08T11:50:17;12.50;67.10
71084;DHT22;58741;52.672;13.548;2024-03-08T11:52:48;12.60;67.30
71084;DHT22;58741;52.672;13.548;2024-03-08T11:55:16;12.70;66.90
71084;DHT22;58741;52.672;13.548;2024-03-08T11:57:47;12.80;67.60
71084;DHT22;58741;52.672;13.548;2024-03-08T12:00:18;12.90;68.00
71084;DHT22;58741;52.672;13.548;2024-03-08T12:03:02;13.10;67.10
71084;DHT22;58741;52.672;13.548;2024-03-08T12:05:29;13.20;67.30
71084;DHT22;58741;52.672;13.548;2024-03-08T12:07:58;13.40;66.50
71084;DHT22;58741;52.672;13.548;2024-03-08T12:10:26;13.40;64.40
71084;DHT22;58741;52.672;13.548;2024-03-08T12:12:54;13.60;65.40
71084;DHT22;58741;52.672;13.548;2024-03-08T12:15:22;13.60;63.80
71084;DHT22;58741;52.672;13.548;2024-03-08T12:17:51;13.70;66.40
71084;DHT22;58741;52.672;13.548;2024-03-08T12:22:49;14.10;64.70
71084;DHT22;58741;52.672;13.548;2024-03-08T12:25:16;14.10;64.20
71084;DHT22;58741;52.672;13.548;2024-03-08T12:27:43;14.30;65.50
71084;DHT22;58741;52.672;13.548;2024-03-08T12:30:18;14.40;63.20
71084;DHT22;58741;52.672;13.548;2024-03-08T12:32:50;14.50;61.60
71084;DHT22;58741;52.672;13.548;2024-03-08T12:35:21;14.60;64.10
71084;DHT22;58741;52.672;13.548;2024-03-08T12:37:53;14.70;61.40
71084;DHT22;58741;52.672;13.548;2024-03-08T12:40:30;14.80;63.10
71084;DHT22;58741;52.672;13.548;2024-03-08T12:42:58;14.90;61.10
71084;DHT22;58741;52.672;13.548;2024-03-08T12:45:25;14.90;60.80
71084;DHT22;58741;52.672;13.548;2024-03-08T12:47:53;15.00;62.70
71084;DHT22;58741;52.672;13.548;2024-03-08T12:50:23;15.10;60.80
71084;DHT22;58741;52.672;13.548;2024-03-08T12:52:53;15.10;60.20
71084;DHT22;58741;52.672;13.548;2024-03-08T12:55:20;15.20;59.00
71084;DHT22;58741;52.672;13.548;2024-03-08T12:57:46;15.20;58.40
71084;DHT22;58741;52.672;13.548;2024-03-08T13:00:15;15.30;58.00
71084;DHT22;58741;52.672;13.548;2024-03-08T13:02:50;15.30;60.00
71084;DHT22;58741;52.672;13.548;2024-03-08T13:05:18;15.30;58.50
71084;DHT22;58741;52.672;13.548;2024-03-08T13:07:45;15.40;59.30
71084;DHT22;58741;52.672;13.548;2024-03-08T13:10:13;15.40;56.70
71084;DHT22;58741;52.672;13.548;2024-03-08T13:12:42;15.40;56.70
71084;DHT22;58741;52.672;13.548;2024-03-08T13:15:09;15.50;58.90
71084;DHT22;58741;52.672;13.548;2024-03-08T13:17:47;15.60;60.00
71084;DHT22;58741;52.672;13.548;2024-03-08T13:20:15;15.60;59.20
71084;DHT22;58741;52.672;13.548;2024-03-08T13:22:56;15.70;59.00
71084;DHT22;58741;52.672;13.548;2024-03-08T13:25:25;15.90;59.20
71084;DHT22;58741;52.672;13.548;2024-03-08T13:27:52;15.90;58.20
71084;DHT22;58741;52.672;13.548;2024-03-08T13:30:20;16.00;59.40
71084;DHT22;58741;52.672;13.548;2024-03-08T13:32:54;16.10;59.00
71084;DHT22;58741;52.672;13.548;2024-03-08T13:35:21;16.20;57.70
71084;DHT22;58741;52.672;13.548;2024-03-08T13:37:53;16.20;54.50
71084;DHT22;58741;52.672;13.548;2024-03-08T13:40:20;16.10;57.70
71084;DHT22;58741;52.672;13.548;2024-03-08T13:42:48;16.10;57.60
71084;DHT22;58741;52.672;13.548;2024-03-08T13:45:17;16.10;57.70
71084;DHT22;58741;52.672;13.548;2024-03-08T13:47:49;16.10;57.90
71084;DHT22;58741;52.672;13.548;2024-03-08T13:50:18;16.10;57.40
71084;DHT22;58741;52.672;13.548;2024-03-08T13:52:48;16.00;55.60
71084;DHT22;58741;52.672;13.548;2024-03-08T13:55:23;15.90;56.40
71084;DHT22;58741;52.672;13.548;2024-03-08T13:57:53;15.70;55.70
71084;DHT22;58741;52.672;13.548;2024-03-08T14:00:20;15.60;56.10
71084;DHT22;58741;52.672;13.548;2024-03-08T14:02:51;15.60;56.90
71084;DHT22;58741;52.672;13.548;2024-03-08T14:05:17;15.50;57.80
71084;DHT22;58741;52.672;13.548;2024-03-08T14:07:46;15.50;57.40
71084;DHT22;58741;52.672;13.548;2024-03-08T14:10:15;15.50;57.10
71084;DHT22;58741;52.672;13.548;2024-03-08T14:12:43;15.40;56.30
71084;DHT22;58741;52.672;13.548;2024-03-08T14:15:10;15.40;56.60
71084;DHT22;58741;52.672;13.548;2024-03-08T14:17:39;15.40;57.80
71084;DHT22;58741;52.672;13.548;2024-03-08T14:20:06;15.40;57.50
71084;DHT22;58741;52.672;13.548;2024-03-08T14:22:34;15.40;54.80
71084;DHT22;58741;52.672;13.548;2024-03-08T14:25:01;15.10;54.80
71084;DHT22;58741;52.672;13.548;2024-03-08T14:27:31;14.80;56.10
71084;DHT22;58741;52.672;13.548;2024-03-08T14:29:59;14.50;56.60
71084;DHT22;58741;52.672;13.548;2024-03-08T14:32:26;14.20;57.10
71084;DHT22;58741;52.672;13.548;2024-03-08T14:34:55;13.90;58.30
71084;DHT22;58741;52.672;13.548;2024-03-08T14:37:21;13.80;59.40
71084;DHT22;58741;52.672;13.548;2024-03-08T14:39:54;13.70;58.50
71084;DHT22;58741;52.672;13.548;2024-03-08T14:42:21;13.50;59.20
71084;DHT22;58741;52.672;13.548;2024-03-08T14:44:48;13.50;60.20
71084;DHT22;58741;52.672;13.548;2024-03-08T14:47:17;13.50;59.20
71084;DHT22;58741;52.672;13.548;2024-03-08T14:49:44;13.70;59.40
71084;DHT22;58741;52.672;13.548;2024-03-08T14:52:11;13.90;59.60
71084;DHT22;58741;52.672;13.548;2024-03-08T14:54:54;13.90;61.30
71084;DHT22;58741;52.672;13.548;2024-03-08T14:57:22;14.20;60.90
71084;DHT22;58741;52.672;13.548;2024-03-08T14:59:49;14.40;60.70
71084;DHT22;58741;52.672;13.548;2024-03-08T15:02:16;14.70;59.00
71084;DHT22;58741;52.672;13.548;2024-03-08T15:04:47;14.70;59.20
71084;DHT22;58741;52.672;13.548;2024-03-08T15:07:24;14.80;59.20
71084;DHT22;58741;52.672;13.548;2024-03-08T15:09:52;14.90;59.50
71084;DHT22;58741;52.672;13.548;2024-03-08T15:12:19;15.10;58.90
71084;DHT22;58741;52.672;13.548;2024-03-08T15:14:47;15.40;58.10
71084;DHT22;58741;52.672;13.548;2024-03-08T15:17:14;15.70;56.90
71084;DHT22;58741;52.672;13.548;2024-03-08T15:19:50;15.90;56.00
71084;DHT22;58741;52.672;13.548;2024-03-08T15:22:18;16.00;56.30
71084;DHT22;58741;52.672;13.548;2024-03-08T15:24:45;16.30;56.20
71084;DHT22;58741;52.672;13.548;2024-03-08T15:27:12;16.30;53.90
71084;DHT22;58741;52.672;13.548;2024-03-08T15:29:39;16.30;54.80
71084;DHT22;58741;52.672;13.548;2024-03-08T15:32:06;16.30;52.20